Time;durP1;ratioP1;P1;durP2;ratioP2;P2;SDS_P1;SDS_P2;PMS_P1;PMS_P2;Temp;Humidity;BMP_temperature;BMP_pressure;BME280_temperature;BME280_humidity;BME280_pressure;Samples;Min_cycle;Max_cycle;Signal;HPM_P1;HPM_P2
2021/01/08 00:00:36;;;;;;;7.30;5.32;;;1.80;1.00;;;;;;4936297;28;20223;-71
2021/01/08 00:03:05;;;;;;;7.95;5.10;;;1.80;1.00;;;;;;4947381;28;20233;-71
2021/01/08 00:05:32;;;;;;;8.70;5.82;;;1.80;1.00;;;;;;4947526;29;20228;-70
2021/01/08 00:07:59;;;;;;;6.97;5.80;;;1.80;1.00;;;;;;4946154;28;20627;-71
2021/01/08 00:10:29;;;;;;;8.43;5.50;;;1.90;1.00;;;;;;4945628;28;20229;-70
2021/01/08 00:12:56;;;;;;;7.70;5.75;;;1.90;1.00;;;;;;4943898;28;20236;-70
2021/01/08 00:15:23;;;;;;;8.07;5.85;;;2.00;1.00;;;;;;4943288;28;20219;-71
2021/01/08 00:17:50;;;;;;;9.20;5.95;;;1.80;1.00;;;;;;4946510;28;20213;-69
2021/01/08 00:20:18;;;;;;;7.78;5.47;;;1.80;1.00;;;;;;4940971;28;20216;-71
2021/01/08 00:22:46;;;;;;;10.23;6.38;;;1.90;1.00;;;;;;4961371;28;20265;-71
2021/01/08 00:25:13;;;;;;;7.70;5.65;;;2.10;1.00;;;;;;4946603;28;20222;-70
2021/01/08 00:27:40;;;;;;;8.98;6.05;;;2.10;1.00;;;;;;4946449;28;20214;-70
2021/01/08 00:30:09;;;;;;;8.10;6.20;;;2.00;1.00;;;;;;4938775;28;20689;-71
2021/01/08 00:32:36;;;;;;;8.95;6.57;;;2.00;1.00;;;;;;4945869;28;20294;-70
2021/01/08 00:35:04;;;;;;;8.00;5.32;;;2.20;1.00;;;;;;4950863;28;20222;-70
2021/01/08 00:37:34;;;;;;;7.10;5.07;;;2.30;99.90;;;;;;4946682;28;20345;-69
2021/01/08 00:40:01;;;;;;;6.32;5.43;;;2.30;99.90;;;;;;4942260;28;20274;-70
2021/01/08 00:42:28;;;;;;;7.25;5.40;;;2.40;99.90;;;;;;4939377;28;20301;-70
2021/01/08 00:44:55;;;;;;;9.30;5.18;;;2.40;99.90;;;;;;4944543;28;20216;-70
2021/01/08 00:47:22;;;;;;;9.50;5.65;;;2.40;99.90;;;;;;4948454;28;20591;-70
2021/01/08 00:49:50;;;;;;;7.88;5.55;;;2.40;99.90;;;;;;4950707;28;20273;-69
2021/01/08 00:52:17;;;;;;;8.30;5.60;;;2.40;99.90;;;;;;4942586;28;20230;-70
2021/01/08 00:54:48;;;;;;;7.50;5.03;;;2.40;99.90;;;;;;4944246;28;20678;-70
2021/01/08 00:57:15;;;;;;;6.45;5.75;;;2.40;99.90;;;;;;4949395;28;20223;-69
2021/01/08 00:59:42;;;;;;;8.60;5.82;;;2.40;99.90;;;;;;4935299;28;20228;-72
2021/01/08 01:02:10;;;;;;;9.05;5.63;;;2.40;99.90;;;;;;4940396;28;20218;-70
2021/01/08 01:04:37;;;;;;;7.32;5.90;;;2.50;99.90;;;;;;4948501;28;20280;-69
2021/01/08 01:07:04;;;;;;;8.43;6.30;;;2.40;99.90;;;;;;4943991;28;20229;-70
2021/01/08 01:09:31;;;;;;;6.72;5.63;;;2.40;99.90;;;;;;4950261;28;20218;-70
2021/01/08 01:11:59;;;;;;;7.53;5.68;;;2.40;99.90;;;;;;4947160;28;20321;-71
2021/01/08 01:14:26;;;;;;;6.25;5.65;;;2.40;99.90;;;;;;4939701;28;20234;-71
2021/01/08 01:16:53;;;;;;;10.02;6.57;;;2.40;90.20;;;;;;4933399;28;20305;-69
2021/01/08 01:19:21;;;;;;;7.70;5.50;;;2.40;2.80;;;;;;4947265;28;20530;-70
2021/01/08 01:21:48;;;;;;;11.40;7.10;;;2.40;92.00;;;;;;4945613;28;20299;-70
2021/01/08 01:24:15;;;;;;;10.75;6.50;;;2.40;48.60;;;;;;4945809;29;20232;-70
2021/01/08 01:26:42;;;;;;;8.38;6.00;;;2.10;1.00;;;;;;4946001;28;20593;-70
2021/01/08 01:29:11;;;;;;;8.00;6.25;;;1.90;99.90;;;;;;4933773;28;20214;-72
2021/01/08 01:31:38;;;;;;;9.40;6.00;;;2.10;99.90;;;;;;4941379;28;20230;-71
2021/01/08 01:34:05;;;;;;;7.07;5.50;;;2.20;99.90;;;;;;4941166;28;20246;-70
2021/01/08 01:36:33;;;;;;;8.55;5.53;;;2.30;99.90;;;;;;4947862;28;20592;-70
2021/01/08 01:39:00;;;;;;;9.30;6.18;;;2.30;99.90;;;;;;4948084;28;20661;-70
2021/01/08 01:41:27;;;;;;;9.45;5.90;;;2.00;65.50;;;;;;4947940;28;20229;-70
2021/01/08 01:43:54;;;;;;;9.52;6.00;;;1.80;99.90;;;;;;4945013;28;20280;-71
2021/01/08 01:46:22;;;;;;;8.18;5.65;;;1.80;1.00;;;;;;4947802;28;20282;-71
2021/01/08 01:48:50;;;;;;;6.38;5.25;;;1.60;99.90;;;;;;4949412;28;20224;-70
2021/01/08 01:51:20;;;;;;;6.65;5.30;;;1.60;99.90;;;;;;4943861;28;20311;-70
2021/01/08 01:53:48;;;;;;;8.75;5.30;;;1.50;99.90;;;;;;4949210;28;20231;-71
2021/01/08 01:56:16;;;;;;;5.32;4.47;;;1.50;99.90;;;;;;4935837;28;20218;-71
2021/01/08 01:58:43;;;;;;;5.20;4.70;;;1.60;99.90;;;;;;4934829;28;20213;-70
2021/01/08 02:01:11;;;;;;;5.90;4.50;;;1.70;99.90;;;;;;4936559;28;20230;-69
2021/01/08 02:03:44;;;;;;;7.85;5.10;;;1.70;99.90;;;;;;4946176;28;20237;-70
2021/01/08 02:06:15;;;;;;;8.52;5.50;;;1.70;99.90;;;;;;4944050;28;20216;-69
2021/01/08 02:08:47;;;;;;;7.63;4.90;;;1.70;99.90;;;;;;4945709;29;20214;-70
2021/01/08 02:11:19;;;;;;;6.25;5.55;;;1.70;99.90;;;;;;4941208;28;20292;-70
2021/01/08 02:13:52;;;;;;;6.47;4.65;;;1.70;61.60;;;;;;4944389;28;20251;-70
2021/01/08 02:16:20;;;;;;;5.90;5.10;;;1.70;21.30;;;;;;4933601;28;20304;-71
2021/01/08 02:18:50;;;;;;;7.35;5.18;;;1.80;1.00;;;;;;4934313;28;20704;-71
2021/01/08 02:21:21;;;;;;;5.10;3.83;;;1.80;1.00;;;;;;4935514;28;20677;-71
2021/01/08 02:23:55;;;;;;;6.80;5.45;;;1.80;1.00;;;;;;4934524;28;20265;-72
2021/01/08 02:26:25;;;;;;;5.70;3.70;;;1.60;1.00;;;;;;4936826;28;20862;-72
2021/01/08 02:28:53;;;;;;;6.43;4.40;;;1.50;1.00;;;;;;4932467;28;20753;-71
2021/01/08 02:31:20;;;;;;;7.60;5.72;;;1.50;1.00;;;;;;4940604;28;20322;-71
2021/01/08 02:33:48;;;;;;;4.60;4.10;;;1.50;1.00;;;;;;4947439;28;20243;-71
2021/01/08 02:36:15;;;;;;;6.00;4.43;;;1.40;99.90;;;;;;4949602;28;20217;-70
2021/01/08 02:38:43;;;;;;;8.52;5.25;;;1.40;99.90;;;;;;4942648;28;20828;-70
2021/01/08 02:41:11;;;;;;;5.85;3.63;;;1.30;99.90;;;;;;4948605;28;20209;-71
2021/01/08 02:43:40;;;;;;;9.15;5.85;;;1.30;99.90;;;;;;4944635;28;20930;-70
2021/01/08 02:46:07;;;;;;;5.40;4.47;;;1.30;99.90;;;;;;4944816;28;20218;-70
2021/01/08 02:48:34;;;;;;;8.30;5.15;;;1.30;99.90;;;;;;4950745;28;20298;-71
2021/01/08 02:51:03;;;;;;;7.68;5.32;;;1.30;99.90;;;;;;4944316;28;20229;-72
2021/01/08 02:53:32;;;;;;;5.65;4.35;;;1.30;99.90;;;;;;4945256;28;20247;-71
2021/01/08 02:56:03;;;;;;;9.02;5.38;;;1.30;99.90;;;;;;4940873;29;20209;-71
2021/01/08 02:58:32;;;;;;;5.70;3.60;;;1.20;99.90;;;;;;4945363;28;20214;-71
2021/01/08 03:01:00;;;;;;;5.18;3.65;;;1.20;99.90;;;;;;4937509;28;20876;-71
2021/01/08 03:03:28;;;;;;;5.20;4.70;;;1.20;99.90;;;;;;4932899;28;20256;-71
2021/01/08 03:05:59;;;;;;;6.57;4.30;;;1.20;99.90;;;;;;4941220;28;20662;-71
2021/01/08 03:08:26;;;;;;;9.05;5.50;;;1.20;99.90;;;;;;4947575;28;20222;-72
2021/01/08 03:10:54;;;;;;;8.48;5.72;;;1.20;1.00;;;;;;4943300;28;20239;-71
2021/01/08 03:13:22;;;;;;;7.45;5.15;;;1.20;99.90;;;;;;4942170;28;20755;-71
2021/01/08 03:15:49;;;;;;;10.70;5.60;;;1.20;1.00;;;;;;4942738;28;20219;-72
2021/01/08 03:18:18;;;;;;;6.72;4.72;;;1.10;1.00;;;;;;4948483;28;20214;-70
2021/01/08 03:20:45;;;;;;;9.57;5.80;;;1.20;1.00;;;;;;4947051;28;20239;-71
2021/01/08 03:23:12;;;;;;;7.03;5.18;;;1.20;1.00;;;;;;4948640;28;20237;-69
2021/01/08 03:25:39;;;;;;;8.40;4.50;;;1.10;1.00;;;;;;4943910;28;21570;-70
2021/01/08 03:28:06;;;;;;;7.38;4.40;;;1.10;1.00;;;;;;4949377;28;20251;-71
2021/01/08 03:30:33;;;;;;;5.03;4.22;;;1.10;1.00;;;;;;4938728;28;20215;-71
2021/01/08 03:33:01;;;;;;;7.32;5.47;;;1.10;1.00;;;;;;4933660;28;20234;-70
2021/01/08 03:35:29;;;;;;;7.60;5.55;;;1.20;1.00;;;;;;4940333;29;20222;-71
2021/01/08 03:37:57;;;;;;;7.95;4.90;;;1.10;1.00;;;;;;4947871;28;20722;-70
2021/01/08 03:40:24;;;;;;;6.80;4.65;;;1.10;1.00;;;;;;4948117;28;20220;-70
2021/01/08 03:42:51;;;;;;;7.95;5.75;;;1.10;1.00;;;;;;4943620;28;20235;-69
2021/01/08 03:45:18;;;;;;;6.07;4.35;;;1.00;1.00;;;;;;4941412;28;20212;-71
2021/01/08 03:47:45;;;;;;;6.25;4.75;;;0.90;1.00;;;;;;4945421;29;20217;-70
2021/01/08 03:50:12;;;;;;;6.72;4.45;;;1.00;1.00;;;;;;4945835;28;20224;-71
2021/01/08 03:52:40;;;;;;;8.48;4.18;;;1.10;1.00;;;;;;4943330;28;20247;-70
2021/01/08 03:55:09;;;;;;;5.28;4.32;;;1.00;1.00;;;;;;4944019;28;20251;-71
2021/01/08 03:57:36;;;;;;;5.95;3.95;;;1.00;1.00;;;;;;4949477;28;20569;-71
2021/01/08 04:00:04;;;;;;;4.72;4.10;;;1.10;1.00;;;;;;4933603;28;20212;-71
2021/01/08 04:02:31;;;;;;;5.75;4.10;;;1.00;1.00;;;;;;4933266;28;20254;-70
2021/01/08 04:04:59;;;;;;;6.97;4.35;;;1.00;1.00;;;;;;4938171;28;20226;-70
2021/01/08 04:07:26;;;;;;;4.68;4.07;;;1.00;1.00;;;;;;4953604;28;20223;-70
2021/01/08 04:09:54;;;;;;;7.00;4.35;;;1.00;1.00;;;;;;4948135;28;20291;-71
2021/01/08 04:12:21;;;;;;;6.43;4.72;;;0.90;1.00;;;;;;4944100;28;20716;-70
2021/01/08 04:14:48;;;;;;;7.38;4.60;;;0.90;1.00;;;;;;4948888;28;20218;-70
2021/01/08 04:17:16;;;;;;;4.95;4.10;;;0.80;1.00;;;;;;4946285;28;20220;-71
2021/01/08 04:19:43;;;;;;;5.72;4.57;;;0.80;1.00;;;;;;4947999;29;20213;-70
2021/01/08 04:22:10;;;;;;;6.72;4.13;;;0.90;1.00;;;;;;4949921;28;20209;-70
2021/01/08 04:24:37;;;;;;;5.78;4.30;;;0.80;1.00;;;;;;4946624;28;20246;-71
2021/01/08 04:27:05;;;;;;;6.97;4.70;;;0.80;1.00;;;;;;4945570;28;20271;-71
2021/01/08 04:29:32;;;;;;;6.30;4.20;;;0.80;1.00;;;;;;4960472;28;20678;-72
2021/01/08 04:32:00;;;;;;;7.57;3.80;;;0.80;1.00;;;;;;4937208;28;20609;-70
2021/01/08 04:34:27;;;;;;;7.15;4.47;;;0.80;1.00;;;;;;4937177;28;20245;-71
2021/01/08 04:36:54;;;;;;;6.90;4.10;;;0.70;1.00;;;;;;4950622;28;20211;-71
2021/01/08 04:39:21;;;;;;;5.05;3.53;;;0.80;1.00;;;;;;4946842;28;20207;-71
2021/01/08 04:41:48;;;;;;;4.15;3.55;;;0.80;1.00;;;;;;4947952;28;20263;-72
2021/01/08 04:44:17;;;;;;;5.35;4.45;;;0.90;1.00;;;;;;4946065;28;20384;-72
2021/01/08 04:46:46;;;;;;;4.93;4.18;;;0.80;1.00;;;;;;4948569;28;20214;-71
2021/01/08 04:49:15;;;;;;;5.10;3.58;;;0.80;1.00;;;;;;4947675;28;20220;-71
2021/01/08 04:51:44;;;;;;;4.40;3.00;;;0.80;1.00;;;;;;4949533;29;20277;-70
2021/01/08 04:54:12;;;;;;;5.18;3.08;;;0.80;1.00;;;;;;4947411;28;20227;-71
2021/01/08 04:56:44;;;;;;;7.20;4.03;;;0.90;1.00;;;;;;4941685;28;20212;-71
2021/01/08 04:59:12;;;;;;;7.00;5.07;;;0.80;1.00;;;;;;4948245;28;20211;-72
2021/01/08 05:01:40;;;;;;;5.15;4.03;;;0.80;1.00;;;;;;4937799;28;20219;-71
2021/01/08 05:04:08;;;;;;;5.38;3.88;;;0.80;1.00;;;;;;4937012;28;20234;-72
2021/01/08 05:06:36;;;;;;;5.47;4.20;;;0.80;1.00;;;;;;4941688;28;20643;-71
2021/01/08 05:09:03;;;;;;;8.85;4.10;;;0.80;1.00;;;;;;4943716;28;20215;-71
2021/01/08 05:11:31;;;;;;;6.60;4.10;;;0.70;1.00;;;;;;4946233;28;20232;-72
2021/01/08 05:14:00;;;;;;;6.22;4.57;;;0.70;1.00;;;;;;4949059;28;20260;-71
2021/01/08 05:16:28;;;;;;;4.03;3.50;;;0.80;1.00;;;;;;4948429;28;20267;-70
2021/01/08 05:18:58;;;;;;;5.72;3.75;;;0.80;1.00;;;;;;4950829;28;20828;-70
2021/01/08 05:21:26;;;;;;;5.57;4.20;;;0.70;1.00;;;;;;4943392;28;20263;-71
2021/01/08 05:23:54;;;;;;;5.20;4.47;;;0.60;1.00;;;;;;4950299;28;20250;-71
2021/01/08 05:26:23;;;;;;;5.40;4.40;;;0.70;1.00;;;;;;4948870;29;20579;-71
2021/01/08 05:28:51;;;;;;;3.53;3.22;;;0.70;1.00;;;;;;4957439;28;20302;-71
2021/01/08 05:31:20;;;;;;;4.88;3.63;;;0.70;1.00;;;;;;4934887;28;20795;-70
2021/01/08 05:33:48;;;;;;;6.63;5.15;;;0.80;1.00;;;;;;4936806;28;20310;-70
2021/01/08 05:36:19;;;;;;;5.45;3.47;;;1.00;1.00;;;;;;4933884;28;20282;-72
2021/01/08 05:38:48;;;;;;;5.82;4.15;;;1.10;1.00;;;;;;4942110;28;20699;-70
2021/01/08 05:41:18;;;;;;;3.80;2.80;;;1.20;1.00;;;;;;4944850;29;20206;-70
2021/01/08 05:43:47;;;;;;;7.45;3.90;;;1.30;1.00;;;;;;4948277;28;20323;-70
2021/01/08 05:46:16;;;;;;;4.47;3.40;;;1.20;99.90;;;;;;4945284;28;20206;-70
2021/01/08 05:48:47;;;;;;;3.70;3.20;;;1.10;99.90;;;;;;4951045;28;20211;-70
2021/01/08 05:51:18;;;;;;;4.90;2.88;;;1.00;1.00;;;;;;4942103;28;20244;-70
2021/01/08 05:53:48;;;;;;;3.70;3.20;;;1.10;1.00;;;;;;4950236;28;20227;-71
2021/01/08 05:56:17;;;;;;;4.32;3.67;;;1.10;1.00;;;;;;4946744;29;20216;-70
2021/01/08 05:58:45;;;;;;;3.20;2.78;;;1.10;1.00;;;;;;4945227;28;20220;-71
2021/01/08 06:01:13;;;;;;;5.63;4.43;;;1.10;99.90;;;;;;4937384;28;20214;-71
2021/01/08 06:03:42;;;;;;;4.07;3.10;;;1.20;1.00;;;;;;4935082;28;20286;-70
2021/01/08 06:06:10;;;;;;;3.47;3.17;;;1.20;1.00;;;;;;4940393;28;21727;-71
2021/01/08 06:08:45;;;;;;;5.93;3.50;;;1.20;99.90;;;;;;4945788;28;20234;-71
2021/01/08 06:11:17;;;;;;;4.93;3.55;;;1.20;1.00;;;;;;4954396;28;20212;-71
2021/01/08 06:13:46;;;;;;;4.85;3.60;;;1.20;99.90;;;;;;4954557;28;20295;-71
2021/01/08 06:16:17;;;;;;;4.68;3.17;;;1.10;1.00;;;;;;4952240;28;20674;-70
2021/01/08 06:18:46;;;;;;;7.00;4.22;;;1.20;1.00;;;;;;4944362;28;20211;-71
2021/01/08 06:21:14;;;;;;;4.32;3.38;;;1.10;1.00;;;;;;4942708;28;20248;-70
2021/01/08 06:23:43;;;;;;;4.80;3.13;;;1.00;1.00;;;;;;4945015;28;20252;-70
2021/01/08 06:26:12;;;;;;;3.75;3.22;;;1.00;1.00;;;;;;4941750;28;20213;-70
2021/01/08 06:28:41;;;;;;;5.35;3.33;;;0.90;1.00;;;;;;4943989;28;20771;-69
2021/01/08 06:31:25;;;;;;;3.60;3.15;;;0.80;1.00;;;;;;4938358;28;20331;-71
2021/01/08 06:33:55;;;;;;;5.03;3.53;;;0.80;1.00;;;;;;4935602;28;20234;-71
2021/01/08 06:36:24;;;;;;;4.60;3.80;;;0.80;1.00;;;;;;4941172;28;20219;-71
2021/01/08 06:38:53;;;;;;;4.93;3.65;;;0.90;1.00;;;;;;4941481;28;20700;-71
2021/01/08 06:41:21;;;;;;;4.10;3.50;;;0.90;1.00;;;;;;4942658;28;20230;-71
2021/01/08 06:43:50;;;;;;;4.70;3.72;;;0.90;1.00;;;;;;4947855;28;20993;-71
2021/01/08 06:46:29;;;;;;;7.18;4.38;;;0.90;1.00;;;;;;4943473;28;20294;-71
2021/01/08 06:48:58;;;;;;;4.93;3.70;;;0.90;1.00;;;;;;4948577;28;20219;-71
2021/01/08 06:51:28;;;;;;;10.80;3.95;;;1.00;1.00;;;;;;4946739;28;20234;-70
2021/01/08 06:53:59;;;;;;;5.85;3.30;;;1.00;1.00;;;;;;4945175;28;20790;-70
2021/01/08 06:56:34;;;;;;;6.93;3.90;;;0.90;1.00;;;;;;4947454;28;20284;-72
2021/01/08 06:59:03;;;;;;;4.45;3.35;;;0.90;1.00;;;;;;4945028;28;20266;-71
2021/01/08 07:01:41;;;;;;;7.18;4.32;;;0.80;1.00;;;;;;4936830;28;20270;-70
2021/01/08 07:04:11;;;;;;;4.22;3.70;;;0.80;1.00;;;;;;4933662;28;20245;-71
2021/01/08 07:06:38;;;;;;;7.70;4.43;;;0.80;1.00;;;;;;4943585;28;20215;-75
2021/01/08 07:09:08;;;;;;;3.83;3.53;;;0.90;1.00;;;;;;4945443;28;20215;-72
2021/01/08 07:11:36;;;;;;;5.60;4.45;;;0.90;1.00;;;;;;4945507;28;20226;-71
2021/01/08 07:14:09;;;;;;;5.93;3.58;;;0.80;1.00;;;;;;4947073;28;20298;-72
2021/01/08 07:16:42;;;;;;;4.70;3.80;;;0.90;1.00;;;;;;4947316;28;20322;-70
2021/01/08 07:19:11;;;;;;;7.63;4.45;;;1.00;1.00;;;;;;4943788;28;20204;-70
2021/01/08 07:21:47;;;;;;;4.93;3.42;;;1.00;1.00;;;;;;4942534;28;20203;-71
2021/01/08 07:24:17;;;;;;;4.80;4.05;;;1.00;1.00;;;;;;4945579;28;20234;-71
2021/01/08 07:26:46;;;;;;;6.70;4.60;;;1.00;1.00;;;;;;4941513;28;20216;-69
2021/01/08 07:29:14;;;;;;;4.07;3.38;;;1.10;1.00;;;;;;4944926;28;20551;-71
2021/01/08 07:31:41;;;;;;;6.85;4.28;;;0.90;1.00;;;;;;4935159;28;20887;-68
2021/01/08 07:34:10;;;;;;;6.95;4.28;;;0.90;1.00;;;;;;4939995;28;20238;-71
2021/01/08 07:36:38;;;;;;;6.03;4.28;;;0.90;1.00;;;;;;4940325;28;20223;-71
2021/01/08 07:39:26;;;;;;;4.15;3.00;;;0.90;1.00;;;;;;4946908;28;20207;-72
2021/01/08 07:41:54;;;;;;;5.82;3.90;;;0.90;1.00;;;;;;4940752;28;20590;-71
2021/01/08 07:44:33;;;;;;;6.10;4.20;;;1.10;1.00;;;;;;4948266;28;20522;-71
2021/01/08 07:47:27;;;;;;;7.72;4.63;;;1.00;1.00;;;;;;4953400;28;20221;-71
2021/01/08 07:50:12;;;;;;;12.27;5.35;;;1.00;1.00;;;;;;4922186;28;20349;-71
2021/01/08 07:52:41;;;;;;;5.20;3.15;;;1.00;1.00;;;;;;4935353;28;20250;-69
2021/01/08 07:55:09;;;;;;;4.55;2.78;;;1.00;1.00;;;;;;4947694;28;20215;-70
2021/01/08 07:58:03;;;;;;;4.55;3.67;;;1.10;1.00;;;;;;4948920;28;20211;-72
2021/01/08 08:00:32;;;;;;;6.03;2.72;;;1.00;1.00;;;;;;4936583;28;20218;-70
2021/01/08 08:03:00;;;;;;;3.35;3.00;;;1.00;1.00;;;;;;4940392;28;20298;-71
2021/01/08 08:05:28;;;;;;;5.43;3.20;;;1.00;1.00;;;;;;4946844;28;20224;-71
2021/01/08 08:07:58;;;;;;;4.45;3.17;;;1.00;1.00;;;;;;4953740;28;20665;-70
2021/01/08 08:10:25;;;;;;;4.80;2.85;;;1.00;1.00;;;;;;4940355;28;20212;-70
2021/01/08 08:12:53;;;;;;;5.35;3.15;;;1.10;1.00;;;;;;4932702;28;20304;-74
2021/01/08 08:15:22;;;;;;;5.10;2.80;;;1.10;1.00;;;;;;4947297;28;20219;-71
2021/01/08 08:17:50;;;;;;;4.25;3.85;;;1.10;1.00;;;;;;4945013;28;20216;-71
2021/01/08 08:20:22;;;;;;;3.67;2.30;;;1.10;1.00;;;;;;4961410;28;20274;-77
2021/01/08 08:22:52;;;;;;;3.50;2.10;;;1.00;1.00;;;;;;4944580;28;20243;-70
2021/01/08 08:25:26;;;;;;;2.42;2.00;;;1.10;1.00;;;;;;4943331;28;20226;-71
2021/01/08 08:27:54;;;;;;;2.72;2.13;;;1.30;1.00;;;;;;4957144;28;20225;-69
2021/01/08 08:30:23;;;;;;;2.58;1.95;;;1.30;1.00;;;;;;4943538;28;20246;-70
2021/01/08 08:32:51;;;;;;;3.20;1.75;;;1.20;1.00;;;;;;4946354;28;20283;-70
2021/01/08 08:35:19;;;;;;;2.25;1.75;;;1.20;1.00;;;;;;4950625;28;20246;-70
2021/01/08 08:37:51;;;;;;;3.88;1.98;;;1.30;1.00;;;;;;4965847;28;20219;-70
2021/01/08 08:40:23;;;;;;;2.55;2.00;;;1.30;1.00;;;;;;4943464;28;20214;-71
2021/01/08 08:42:51;;;;;;;3.50;2.30;;;1.20;1.00;;;;;;4946594;28;20441;-70
2021/01/08 08:45:20;;;;;;;2.38;2.05;;;1.20;1.00;;;;;;4943152;28;20242;-70
2021/01/08 08:47:50;;;;;;;1.92;1.60;;;1.20;1.00;;;;;;4947971;28;20347;-71
2021/01/08 08:50:18;;;;;;;2.20;1.70;;;1.30;1.00;;;;;;4945381;28;20228;-72
2021/01/08 08:52:48;;;;;;;2.10;1.90;;;1.40;1.00;;;;;;4943362;28;20242;-75
2021/01/08 08:55:30;;;;;;;3.83;2.10;;;1.50;99.90;;;;;;4943191;28;20227;-73
2021/01/08 08:58:01;;;;;;;2.70;1.55;;;1.50;99.90;;;;;;4965168;28;20649;-73
2021/01/08 09:00:29;;;;;;;3.28;2.13;;;1.60;99.90;;;;;;4962842;28;20220;-73
2021/01/08 09:02:57;;;;;;;2.30;2.00;;;1.70;99.90;;;;;;4942719;28;20421;-72
2021/01/08 09:05:31;;;;;;;2.15;1.80;;;1.80;99.90;;;;;;4937879;28;20220;-72
2021/01/08 09:08:09;;;;;;;3.00;1.85;;;1.80;99.90;;;;;;4943684;28;20300;-72
2021/01/08 09:10:41;;;;;;;3.45;2.95;;;1.90;1.00;;;;;;4947193;28;20598;-71
2021/01/08 09:13:13;;;;;;;4.43;2.95;;;2.00;62.20;;;;;;4948055;28;20240;-73
2021/01/08 09:15:49;;;;;;;2.60;1.90;;;2.30;1.00;;;;;;4950839;28;20224;-72
2021/01/08 09:18:31;;;;;;;3.03;1.75;;;2.40;1.00;;;;;;4946776;28;20217;-72
2021/01/08 09:21:04;;;;;;;1.80;1.70;;;2.30;1.00;;;;;;4947016;28;20317;-73
2021/01/08 09:23:36;;;;;;;1.85;1.65;;;2.30;99.90;;;;;;4957405;28;20631;-72
2021/01/08 09:26:05;;;;;;;1.95;1.77;;;2.50;1.00;;;;;;4944492;28;20212;-74
2021/01/08 09:28:43;;;;;;;2.40;2.05;;;2.60;99.90;;;;;;4957019;28;20214;-72
2021/01/08 09:31:10;;;;;;;2.17;1.58;;;2.40;34.20;;;;;;4948339;28;20218;-72
2021/01/08 09:33:39;;;;;;;1.60;1.50;;;2.50;34.10;;;;;;4940926;28;20254;-72
2021/01/08 09:36:07;;;;;;;2.20;1.42;;;2.40;1.00;;;;;;4947568;28;20727;-72
2021/01/08 09:38:36;;;;;;;1.83;1.33;;;2.50;1.00;;;;;;4944591;28;20215;-72
2021/01/08 09:41:04;;;;;;;1.40;1.30;;;2.70;43.20;;;;;;4942418;28;20772;-73
2021/01/08 09:43:32;;;;;;;2.00;1.70;;;2.70;1.00;;;;;;4960878;28;20849;-72
2021/01/08 09:46:06;;;;;;;2.30;1.50;;;2.80;1.00;;;;;;4942234;28;20209;-72
2021/01/08 09:48:35;;;;;;;1.75;1.65;;;3.10;1.00;;;;;;4949496;28;20268;-77
2021/01/08 09:51:05;;;;;;;2.38;1.60;;;3.20;1.00;;;;;;4943851;28;20308;-71
2021/01/08 09:53:34;;;;;;;3.00;2.05;;;3.40;99.90;;;;;;4946671;28;20247;-70
2021/01/08 09:56:15;;;;;;;2.10;1.90;;;3.60;1.00;;;;;;4943895;28;20682;-72
2021/01/08 09:58:43;;;;;;;3.15;2.00;;;3.40;99.90;;;;;;4942011;28;21352;-70
2021/01/08 10:01:12;;;;;;;1.85;1.55;;;3.50;99.90;;;;;;4948200;28;20262;-71
2021/01/08 10:03:41;;;;;;;2.10;1.60;;;3.50;99.90;;;;;;4942939;28;20227;-74
2021/01/08 10:06:10;;;;;;;1.80;1.40;;;3.30;99.90;;;;;;4942876;28;20219;-72
2021/01/08 10:08:38;;;;;;;2.42;1.90;;;3.20;1.00;;;;;;4945727;28;20212;-70
2021/01/08 10:11:06;;;;;;;2.65;1.73;;;3.10;1.00;;;;;;4944568;28;20232;-70
2021/01/08 10:13:34;;;;;;;1.77;1.40;;;3.20;1.00;;;;;;4944942;28;20231;-70
2021/01/08 10:16:09;;;;;;;1.67;1.45;;;3.10;99.90;;;;;;4949406;28;20242;-70
2021/01/08 10:18:37;;;;;;;2.95;1.63;;;3.00;1.00;;;;;;4943565;28;20214;-70
2021/01/08 10:21:06;;;;;;;2.83;1.55;;;3.00;1.00;;;;;;4939892;29;20212;-70
2021/01/08 10:23:42;;;;;;;2.53;1.60;;;2.90;99.90;;;;;;4944748;28;20307;-70
2021/01/08 10:26:11;;;;;;;1.92;1.73;;;2.90;99.90;;;;;;4941362;28;20598;-68
2021/01/08 10:28:50;;;;;;;2.85;1.80;;;2.70;1.00;;;;;;4944650;28;20216;-69
2021/01/08 10:31:18;;;;;;;2.80;1.85;;;2.90;1.00;;;;;;4942255;28;20216;-71
2021/01/08 10:33:45;;;;;;;2.50;1.40;;;2.90;99.90;;;;;;4942903;28;20237;-70
2021/01/08 10:36:14;;;;;;;2.50;1.77;;;3.00;1.00;;;;;;4944650;28;20208;-68
2021/01/08 10:38:42;;;;;;;2.15;1.77;;;3.00;1.00;;;;;;4945960;28;20214;-70
2021/01/08 10:41:15;;;;;;;1.65;1.55;;;3.20;1.00;;;;;;4950120;28;20217;-69
2021/01/08 10:43:43;;;;;;;1.90;1.70;;;3.10;40.00;;;;;;4947666;28;20618;-68
2021/01/08 10:46:12;;;;;;;2.15;1.80;;;3.10;65.70;;;;;;4943248;28;20218;-70
2021/01/08 10:48:41;;;;;;;2.30;2.10;;;3.30;65.00;;;;;;4945490;28;20214;-68
2021/01/08 10:51:08;;;;;;;2.35;1.95;;;3.50;1.00;;;;;;4942000;28;20485;-70
2021/01/08 10:53:36;;;;;;;2.60;1.85;;;3.60;99.90;;;;;;4933992;28;20238;-68
2021/01/08 10:56:06;;;;;;;2.22;2.00;;;3.70;99.90;;;;;;4937881;28;20219;-70
2021/01/08 10:58:34;;;;;;;2.50;2.30;;;3.80;99.90;;;;;;4938450;28;20309;-71
2021/01/08 11:01:02;;;;;;;8.65;3.33;;;3.80;99.90;;;;;;4947486;28;20259;-70
2021/01/08 11:03:29;;;;;;;2.75;2.40;;;3.80;99.90;;;;;;4945325;28;20250;-69
2021/01/08 11:05:57;;;;;;;2.30;2.03;;;4.00;99.90;;;;;;4952944;28;20205;-70
2021/01/08 11:08:24;;;;;;;3.20;2.03;;;4.20;47.20;;;;;;4946850;28;20755;-71
2021/01/08 11:10:52;;;;;;;2.70;1.77;;;4.10;67.40;;;;;;4946402;28;20220;-69
2021/01/08 11:13:20;;;;;;;2.95;2.00;;;4.50;99.90;;;;;;4944790;28;20233;-71
2021/01/08 11:15:47;;;;;;;3.10;2.20;;;5.20;5.60;;;;;;4948020;28;20206;-71
2021/01/08 11:18:14;;;;;;;3.95;2.20;;;5.70;1.00;;;;;;4946647;28;20583;-70
2021/01/08 11:20:46;;;;;;;3.55;2.00;;;5.90;1.00;;;;;;4948320;28;20206;-70
2021/01/08 11:23:14;;;;;;;3.28;2.05;;;5.80;1.00;;;;;;4941932;28;20327;-70
2021/01/08 11:25:42;;;;;;;2.03;1.90;;;5.90;1.00;;;;;;4948167;28;20200;-70
2021/01/08 11:28:11;;;;;;;2.50;2.20;;;5.90;99.90;;;;;;4946932;28;20226;-71
2021/01/08 11:30:39;;;;;;;2.65;2.45;;;5.90;99.90;;;;;;4948059;28;20209;-70
2021/01/08 11:33:07;;;;;;;2.20;2.00;;;5.70;99.90;;;;;;4948905;29;20232;-69
2021/01/08 11:35:35;;;;;;;2.85;2.25;;;5.70;99.90;;;;;;4947713;29;20263;-69
2021/01/08 11:38:02;;;;;;;2.20;2.00;;;5.70;99.90;;;;;;4946206;28;20213;-69
2021/01/08 11:40:30;;;;;;;2.25;1.70;;;5.70;99.90;;;;;;4947825;28;20233;-70
2021/01/08 11:42:57;;;;;;;2.47;1.83;;;5.60;99.90;;;;;;4949408;28;20224;-69
2021/01/08 11:45:24;;;;;;;2.03;1.83;;;5.50;99.90;;;;;;4945511;29;20230;-71
2021/01/08 11:47:52;;;;;;;1.90;1.60;;;5.20;99.90;;;;;;4963118;28;20217;-71
2021/01/08 11:50:19;;;;;;;1.77;1.52;;;5.10;99.90;;;;;;4941328;28;20740;-70
2021/01/08 11:52:46;;;;;;;1.85;1.60;;;5.20;99.90;;;;;;4944774;28;20680;-71
2021/01/08 11:55:14;;;;;;;2.00;1.75;;;4.90;99.90;;;;;;4946027;28;20295;-70
2021/01/08 11:57:42;;;;;;;4.15;1.77;;;5.10;99.90;;;;;;4945618;29;20564;-69
2021/01/08 12:00:10;;;;;;;1.55;1.45;;;5.40;99.90;;;;;;4945899;28;20216;-72
2021/01/08 12:02:37;;;;;;;1.80;1.65;;;5.40;99.90;;;;;;4948920;28;20213;-70
2021/01/08 12:05:08;;;;;;;2.10;1.92;;;5.30;99.90;;;;;;4950924;28;20565;-69
2021/01/08 12:07:36;;;;;;;3.60;1.90;;;5.50;99.90;;;;;;4941248;28;20290;-68
2021/01/08 12:10:03;;;;;;;2.45;2.10;;;5.50;99.90;;;;;;4941217;28;20382;-68
2021/01/08 12:12:33;;;;;;;5.03;2.67;;;5.70;99.90;;;;;;4953358;28;20234;-69
2021/01/08 12:15:01;;;;;;;2.63;1.95;;;6.00;99.90;;;;;;4942320;28;20265;-68
2021/01/08 12:17:29;;;;;;;4.20;1.63;;;5.90;99.90;;;;;;4944080;28;20214;-69
2021/01/08 12:19:56;;;;;;;2.10;1.90;;;5.80;99.90;;;;;;4936691;28;20208;-70
2021/01/08 12:22:24;;;;;;;4.00;1.90;;;5.70;99.90;;;;;;4943708;28;20202;-70
2021/01/08 12:24:51;;;;;;;2.15;1.90;;;5.50;99.90;;;;;;4965411;28;20304;-70
2021/01/08 12:27:18;;;;;;;2.17;1.80;;;5.30;99.90;;;;;;4946579;28;20223;-70
2021/01/08 12:29:46;;;;;;;2.95;2.35;;;5.10;99.90;;;;;;4952756;28;20208;-69
2021/01/08 12:32:14;;;;;;;2.40;1.73;;;4.90;99.90;;;;;;4944575;28;20224;-69
2021/01/08 12:34:41;;;;;;;2.45;2.25;;;4.80;99.90;;;;;;4949562;28;20772;-69
2021/01/08 12:37:08;;;;;;;6.55;1.92;;;4.80;99.90;;;;;;4949124;28;20217;-71
2021/01/08 12:39:37;;;;;;;3.28;2.20;;;4.70;99.90;;;;;;4948451;28;20575;-69
2021/01/08 12:42:04;;;;;;;2.40;1.70;;;4.80;99.90;;;;;;4950792;28;20212;-69
2021/01/08 12:44:32;;;;;;;2.78;2.55;;;4.60;99.90;;;;;;4950054;28;20216;-70
2021/01/08 12:47:02;;;;;;;2.50;2.10;;;4.60;99.90;;;;;;4949037;28;20224;-69
2021/01/08 12:49:30;;;;;;;2.72;2.13;;;4.70;99.90;;;;;;4949874;28;20218;-69
2021/01/08 12:51:58;;;;;;;3.83;2.40;;;4.60;99.90;;;;;;4948230;28;20206;-69
2021/01/08 12:54:25;;;;;;;2.65;2.00;;;4.60;99.90;;;;;;4948511;28;20226;-70
2021/01/08 12:56:54;;;;;;;5.15;2.30;;;4.60;99.90;;;;;;4947894;28;20208;-70
2021/01/08 12:59:21;;;;;;;2.55;2.35;;;4.70;99.90;;;;;;4950856;28;20227;-72
2021/01/08 13:01:55;;;;;;;3.08;2.75;;;4.80;99.90;;;;;;4951940;28;20218;-69
2021/01/08 13:04:22;;;;;;;3.08;2.30;;;4.80;99.90;;;;;;4948635;28;20236;-70
2021/01/08 13:06:49;;;;;;;2.83;2.63;;;5.00;99.90;;;;;;4948657;28;20255;-69
2021/01/08 13:09:17;;;;;;;2.95;2.42;;;4.90;99.90;;;;;;4942740;28;20214;-71
2021/01/08 13:11:44;;;;;;;2.63;2.30;;;5.00;99.90;;;;;;4951075;28;20855;-70